Timeline UpdatesTrip UpdatesNews PostsPvt Posts♥♥Travel TipsAdmin PostsConv PostsFollowed PostsChat RequestsBlog PostsPNR Posts

Disclaimer
Search
 
 
Sat Nov 1, 2014 15:15:43 ISTHomeTrainsΣChainsAtlasPNRForumGalleryNewsFAQTripsMembersLoginFeedback
No Recent News for this Train
Other Trains in the News **new
Latest...
running with SX1 (duration not known)....#1181763
Fri Aug 08, 2014 (06:37PM)
⇐ Return Journey: Train# 19166

19165/Sabarmati Express

Time-Table HAS CHANGED.
Sep 01 2014 (11:16PM)
Change Departure Station:
Change Arrival Station:
Post a Train Travel TipPost a Train Travel Tip **new
Post a Comment/Question/Picture/VideoPost a Comment/Question/Picture/Video
Pantry/Catering
✕ NO Pantry Car
✕ NO Catering
Loco/Rake Reversals
BRC/Vadodara Junction (7); BINA/Bina Junction (5); SPJ/Samastipur Junction (9); SHG/Shahganj Junction (4);
RSA - Rake Sharing
19165/19166/19167/19168 has RSA
Rake/Coach Composition
LOCO-SLR-GS-GS-A1-B1-B2-S1-S2-S3-S4-S5-S6-S7-S8-S9-S10-S11-S12-S13-SX1-GS-GS-SLR
Loco
ADI-RTM :BRC WAP4E RTM-DBG :RTM WDM3A
News    PNR    Forum    Time-Table    Availability    Fare Chart    Map    Arr/Dep History    Trips    Gallery    ΣChains    X/O    Timeline    
Travel Time: 1h 55m    4 halts    Distance: 100 km    Avg Speed: 52 km/hr
Type: Mail/Express
Zone: WR/Western
Departs @ 20:50 (Avg on time)
Platform# 2
S  W F 
Ahmedabad Junction/ADI 
Arrives @ 22:45 (Avg 10m late)
Platform# 7
S  W F 
Vadodara Junction/BRC 

4 halts. 21 intermediate Stations between Ahmedabad Junction and Vadodara Junction

Show ALL intermediate Stations  Show Old Time-Table

#TrkCodeStation NameX/OArrivesAvgDepartsAvgHaltPFDay#KmSpeedElevZoneAddress
1/==/ADIAhmedabad Junction (12)»  -20:50+0210.02751mWRAhmedabad, Gujarat
2/==/MANManinagar (2)X  20:57+020:59+02m213.26250mWRAhmadabad, Gujarat
3/==/MHDMahemdavad Kheda Road (4)X  21:23+1021:25+102m2128.07537mWRMahemdavad, Gujarat
4/==/NDNadiad Junction (4)  21:39+1521:41+152m1145.66237mWRNadiad, Gujarat
5/==/ANNDAnand Junction (6)  21:59+1222:01+122m1164.14944mWRAnand, Gujarat
6/==/BRCVadodara Junction (7)•XO22:45+1023:10+1025m7199.85336mWRVadodara 390005, Gujarat
7/==/GDAGodhra Junction (3)  00:33-100:35+02m--2173.777122mWRGodhra, Gujarat
8/==/DHDDahod (3)X  01:30 01:32+2401:32 01:34+242m--2246.890313mWRDahod, Gujarat
9/==/MGNMeghnagar (3)X  01:54 01:56+3401:56 01:58+352m--2279.955317mWRJhabua, Madhya Pradesh
10/==/RTMRatlam Junction (7)X  03:25+2403:40+3415m52360.269495mWRRatlam 457001, Madhya Pradesh
11/==/KUHKhachrod (2)  04:02 04:04+4504:04 04:06+452m--2387.934497mWRUjjain, Madhya Pradesh
12/==/NADNagda Junction (4)  04:30+3404:35+375m--2401.761468mWRNagda, Madhya Pradesh
13/==/UJNUjjain Junction (8)X  05:30+2905:50+1820m--2457.374492mWRUjjain 456001, Madhya Pradesh
14/==/TANTarana RoadO  06:15 06:17+2006:17 06:18+182 1m--2490.716498mWRMaksi, Madhya Pradesh
15/==/MKCMaksi Junction (3)  06:53+306:55+42m--2500.376513mWRMakshi, Madhya Pradesh
16|--|SFYShajapurX  07:19 07:17+1807:21 07:19+232m--2528.150450mWCRShajapur, Madhya Pradesh
17|--|SFWSarangpur  07:50 07:51+1907:52 07:53+192m--2554.665422mWCRSarangpur, Madhya Pradesh
18|--|PFRPachor Road  08:23+2108:25+212m--2587.363419mWCRPachore, Madhya Pradesh
19|--|BRRGBiyavra RajgarhX  08:53+2308:55+232m--2616.544423mWCRBiaora, Madhya Pradesh
20|--|CBKChachaura Binaganj (1)  09:38 09:36+1709:40 09:38+212m12646.972435mWCRGuna, Madhya Pradesh
21|--|KHRJKumbhraj (1)  10:08 09:57+2310:10 09:59+282m12669.672401mWCRManpura, Madhya Pradesh
22|--|VJPVijay PurX  10:18 10:15+3310:20 10:17+352m--2688.752420mWCRVijaipur, Madhya Pradesh
23|-=%RTARuthiyai Junction (2)  10:35 10:23+3710:40 10:28+395m--2693.926414mWCRRuthiyai, Madhya Pradesh
24|-=%GUNAGuna Junction (3)  11:40 11:15+2311:55 11:25+2615 10m22714.258477mWCRJn Point Indore/Gwalior/Bina/Kota, Madhya Pradesh
25/--/ASKNAshok Nagar (2)X  12:38 12:11+3312:40 12:13+352m--2758.337502mWCRAshoknagar, Madhya Pradesh
26/--/PIAPipraigaon (3)X  13:02 12:56+2913:04 12:58+302m12784.748451mWCRAshoknagar, Madhya Pradesh
27/--/MNVMungaoli (2)  13:29 13:22+2713:31 13:24+282m--2804.026403mWCRAshoknagar, Madhya Pradesh
28/--/BINABina Junction (5)X14:20 14:30+014:40+720 10m42833.056414mWCRJn Pt - KATNI/GUNA/ BPL/JHS, Madhya Pradesh
29/==/DUADhaura (3)X  15:17+2815:19+312m--2867.758407mNCRDhaura Tanda, Madhya Pradesh
30/==/JLNJakhalaun (3)  15:30 15:31+2915:32 15:33+292m--2879.259394mNCRLalitpur(05176-272220), Uttar Pradesh
31/==/LARLalitpur (3)X  15:45 15:50+2415:47 15:55+232 5m32896.092373mNCRLalitpur, Uttar Pradesh
32/==/TBTTalbahat (4)  16:13 16:21+3616:15 16:23+362m32935.971314mNCRKhaniyadhana Station Rd, Madhya Pradesh
33/==/BABBabina (3)  16:36 16:44+3816:38 16:46+392m22960.839285mNCRBabina, Uttar Pradesh
34/==/JHSJhansi Junction (7)  17:15 17:25+2817:30 17:40+3515m--2986.3-259mNCRJhansi, Uttar Pradesh
35/--/CGNChirgaon  17:54 17:46+1:2117:56 17:48+1:232m--21018.064192mNCRChirgaon, Uttar Pradesh
36/--/MOTHMothX  18:15 18:10+1:2318:17 18:12+1:242m--21041.579175mNCRJhansi, Uttar Pradesh
37/--/AITAit Junction (2)  18:42 18:38+1:3418:44 18:40+1:352m121075.645154mNCROrai(05162-252206), Uttar Pradesh
38/--/ORAIOrai (3)X  19:09 19:13+1:1319:11 19:15+1:192m321100.273139mNCROrai(05162-252206), Uttar Pradesh
39/--/KPIKalpiX  19:38 19:42+1:4319:40 19:44+1:432m--21133.065114mNCRKalpi Orai(05162-252206), Uttar Pradesh
40/--/PHNPokhrayan (2)X  19:58+1:4820:00+1:472m121148.118133mNCRPukhrayan, Uttar Pradesh
41/-=/BZMBhimsen (1)  22:28+1122:30+142m121192.421136mNCRKanpur, Uttar Pradesh
42/==/CNBKanpur Central (10)X  23:10+1623:20+1610m--21206.547128mNCRKANPUR-208 001, Uttar Pradesh
43/==/ONUnnao Junction (5)X  23:41 23:42+4123:43 23:44+422m--21223.950129mNRUnnao, Uttar Pradesh
44/==/LKOLucknow Charbagh NR (9)X  00:50+3301:05+3715m331278.540 NR226004, Uttar Pradesh
45/==/BBKBarabanki Junction (4)  01:48+5101:50+522m--31307.171 NRPin-225001, Uttar Pradesh
46|--|DYDDaryabad  02:22+5702:24+582m--31345.143116mNRFaizabad Rd, Uttar Pradesh
47|--|RDLRudauli (2)  02:55 02:56+4902:57+502 1m--31368.234112mNRRudauli, Uttar Pradesh
48|--|FDFaizabad Junction (5)  04:05+3604:10+445m--31406.325104mNRFaizabad, Uttar Pradesh
49|--|AYAyodhya Junction (3)  04:25 04:26+5004:27+522 1m--31413.16898mNRAyodhya, Uttar Pradesh
50|--|GGJGoshainGanj (3)X  04:54 04:55+5704:56+572 1m--31444.84498mNRGoshainganj, Uttar Pradesh
51|--|ABPAkbarpur Junction (2)  05:26+4705:28+522m--31467.06092mNRAkbarpur, Uttar Pradesh
52|--|MLPRMalipur (2)  05:46 05:47+5505:48+562 1m--31486.12992mNRMalipur, Uttar Pradesh
53|--|SHGShahganj Junction (4)06:30 06:40+4407:10+4640 30m--31511.16190mNRShahganj, Uttar Pradesh
54|--|KRNDKhorason Road (2)  07:31+5807:33+592m--31532.24885mNERUttar Pradesh 276304 ?, Uttar Pradesh
55|--|SMZSarai Mir (2)  07:44+1:0007:46+1:002m--31541.14687mNERTowa Ahirana, Uttar Pradesh
56|--|AMHAzamgarh (2)  08:20+5608:25+585m131567.03081mNERAzamgarh, Uttar Pradesh
57|--|MMAMuhammadabad (2)  09:08+4709:10+492m--31588.62980mNERMuhammadabad Marg, Uttar Pradesh
58|--|MAUMau Junction (4)X  09:55+4610:10+4415m--31610.23675mNERMau., Uttar Pradesh
59|-=|IAAIndara Junction (3)  10:22 10:23+4610:24 10:25+462m--31618.15774mNERMau, Uttar Pradesh
60|--|RSRRasra (2)X  10:53 10:55+5010:55 10:57+522m--31646.44170mNERRasra, Uttar Pradesh
61|--|BUIBallia (3)  11:45+5711:50+595m--31679.16262mNERBallia, Uttar Pradesh
62|--|SIPSuraimanpur  12:20 12:25+1:1512:22 12:27+1:162m--31715.53360mNERBallia, Uttar Pradesh
63|--|CPRChhapra Junction (6)X  13:20+1:0813:40+1:1520m--31744.75458mNERDistt: Saran, Bihar
64/==/SEESonpur Junction (4)X  14:55 14:40+1:3915:04 14:45+1:419 5m--31798.83356mECRSaran, Bihar
65/=-/HJPHajipur Junction (3)  15:17 14:55+1:3215:19 15:00+1:442 5m--31804.34355mECR06224-272230, Bihar
66%==%MFPMuzaffarpur Junction (6)  16:12 16:15+2:0416:22 16:20+2:0910 5m131858.14557mECRMuzaffarpur, Bihar
67/==/SPJSamastipur Junction (9)XO17:30+2:0717:58+2:1228m--31910.23255mECRSamastipur, Bihar
68|--|LSILaheria Sarai (1)  18:58+2:3319:00+2:342m131942.72052mECRDarbhanga, Bihar
69|--|DBGDarbhanga Junction (5)  19:15+2:01-131947.7-54mECRDarbhanga, Bihar
Scroll to Top
Scroll to Bottom